Coutts, Canada
Current Conditions -  °F | °C
As of 2:56 PM on Thursday 18 Dec 2014 (Local Time) from KCTB Reporting Station
Few Clouds Few Clouds  
Wind Chill: 30°   Ceiling: Unl
Heat Index: 36°   Visibility: 10mi
Dew Point: 28°   Wind: 8mph
Humidity: 73%   Direction: 240°WSW
Pressure: 29.85"   Gusts: NA
Location:  49°N, 111.95°W
Report Text: KCTB 182156Z AUTO 24007KT 10SM FEW120 02/M02 A2985 RMK AO2 SLP146 T00221022
Loading
Personal Weather Stations






























Interactive Weather Map New forecast layout! Learn more

10-Day Weather Forecast

Advertisements
Track Severe Weather on mobile